Latest Weather Observations for kunanyi / Mount Wellington

IDT60901

Issued at 11:01 am EDT Saturday 19 January 2019 (issued every 10 minutes, with the page automatically refreshed every 10 minutes)

About weather observations | Map of Hobart area stations | Latest observations for Hobart area | Other Formats
Station Details ID: 094087 Name: KUNANYI (MOUNT WELLINGTON PINNACLE) Lat: -42.90 Lon: 147.24 Height: 1260.47 m
Data from the previous 72 hours. | See also: Recent months at kunanyi / Mount Wellington
Date/Time
EDT
Temp
°C
App
Temp
°C
Dew
Point
°C
Rel
Hum
%
Delta-T
°C
Wind Press
QNH
hPa
Press
MSL
hPa
Rain since
9am
mm
Dir  Spd
km/h
Gust
km/h
Spd
kts
Gust
kts
19/11:00am 8.1 -1.8 1.9 65 2.8 WSW 43 56 23 30 - - 0.0
19/10:30am 7.5 -0.8 2.4 70 2.3 W 35 61 19 33 - - 0.0
19/10:00am 7.3 -0.3 3.0 74 2.0 WSW 32 46 17 25 - - 0.0
19/09:30am 6.1 -2.8 2.9 80 1.4 WSW 39 54 21 29 - - 0.0
19/09:00am 5.7 -3.7 2.5 80 1.4 W 41 57 22 31 - - 0.4
19/08:47am 5.1 -3.2 2.3 82 1.2 WSW 35 54 19 29 - - 0.4
19/08:30am 5.0 -2.4 2.0 81 1.3 W 30 43 16 23 - - 0.4
19/08:00am 4.4 -5.2 0.9 78 1.5 WSW 41 54 22 29 - - 0.4
19/07:48am 4.0 -7.4 0.7 79 1.4 WSW 50 69 27 37 - - 0.4
19/07:30am 3.9 -7.5 0.8 80 1.3 WSW 50 67 27 36 - - 0.4
19/07:00am 3.6 -8.1 0.8 82 1.2 WSW 52 80 28 43 - - 0.4
19/06:46am 3.4 -7.6 1.0 84 1.0 WSW 48 76 26 41 - - 0.4
19/06:30am 3.1 -5.6 2.1 93 0.4 WSW 37 52 20 28 - - 0.4
19/06:00am 2.8 -6.3 1.6 92 0.5 WSW 39 48 21 26 - - 0.4
19/05:30am 3.0 -4.9 2.3 95 0.3 WSW 33 44 18 24 - - 0.4
19/05:00am 3.0 -3.6 2.1 94 0.4 WSW 26 37 14 20 - - 0.4
19/04:30am 3.0 -6.1 1.8 92 0.5 WSW 39 61 21 33 - - 0.4
19/04:00am 3.1 -7.8 1.3 88 0.8 WSW 48 69 26 37 - - 0.4
19/03:32am 3.3 -7.9 1.8 90 0.6 WSW 50 69 27 37 - - 0.4
19/03:30am 3.3 -7.9 2.0 91 0.6 WSW 50 65 27 35 - - 0.4
19/03:00am 3.5 -7.2 2.8 95 0.3 SW 48 69 26 37 - - 0.4
19/02:51am 3.6 -5.7 2.9 95 0.3 WSW 41 63 22 34 - - 0.4
19/02:44am 3.6 -6.1 2.9 95 0.3 WSW 43 63 23 34 - - 0.4
19/02:31am 3.6 -8.6 2.9 95 0.3 WSW 56 76 30 41 - - 0.4
19/02:30am 3.6 -8.8 2.7 94 0.4 WSW 57 76 31 41 - - 0.4
19/02:24am 3.7 -9.8 2.8 94 0.4 WSW 63 82 34 44 - - 0.4
19/02:00am 3.7 -10.6 2.5 92 0.5 WSW 67 82 36 44 - - 0.4
19/01:47am 3.8 -8.6 2.6 92 0.5 WSW 57 76 31 41 - - 0.4
19/01:30am 4.0 -9.2 2.5 90 0.7 WSW 61 78 33 42 - - 0.4
19/01:10am 4.0 -10.9 2.2 88 0.8 WSW 70 91 38 49 - - 0.4
19/01:00am 4.1 -11.3 2.0 86 0.9 WSW 72 91 39 49 - - 0.4
19/12:30am 4.0 -13.1 2.8 92 0.5 WSW 82 104 44 56 - - 0.4
19/12:00am 4.2 -12.1 3.2 93 0.4 WSW 78 102 42 55 - - 0.4
 
Date/Time
EDT
Temp
°C
App
Temp
°C
Dew
Point
°C
Rel
Hum
%
Delta-T
°C
Wind Press
QNH
hPa
Press
MSL
hPa
Rain since
9am
mm
Dir  Spd
km/h
Gust
km/h
Spd
kts
Gust
kts
18/11:31pm 4.3 -10.3 2.8 90 0.7 WSW 69 89 37 48 - - 0.4
18/11:30pm 4.3 -10.6 2.7 89 0.7 WSW 70 89 38 48 - - 0.4
18/11:02pm 4.7 -10.4 3.2 90 0.7 WSW 72 91 39 49 - - 0.4
18/11:00pm 4.6 -10.6 3.1 90 0.7 WSW 72 91 39 49 - - 0.4
18/10:30pm 5.5 -6.9 4.9 96 0.3 WSW 59 80 32 43 - - 0.4
18/10:00pm 6.1 -7.2 5.7 97 0.2 WSW 65 87 35 47 - - 0.4
18/09:38pm 6.7 -6.9 6.3 97 0.2 WSW 67 89 36 48 - - 0.4
18/09:32pm 6.8 -4.3 6.4 97 0.2 WSW 54 83 29 45 - - 0.4
18/09:31pm 7.0 -3.3 6.6 97 0.2 WSW 50 83 27 45 - - 0.4
18/09:30pm 7.3 -2.2 6.9 97 0.2 WSW 46 65 25 35 - - 0.4
18/09:00pm 10.1 0.9 5.3 72 2.4 W 43 65 23 35 - - 0.0
18/08:58pm 10.3 1.0 5.1 70 2.5 W 43 65 23 35 - - 0.0
18/08:30pm 11.0 3.9 6.2 72 2.4 W 33 50 18 27 - - 0.0
18/08:00pm 11.9 5.9 7.2 73 2.4 W 28 41 15 22 - - 0.0
18/07:30pm 12.9 6.4 6.7 66 3.2 W 30 39 16 21 - - 0.0
18/07:00pm 13.5 10.0 10.3 81 1.8 WNW 19 24 10 13 - - 0.0
18/06:30pm 11.0 9.8 10.2 95 0.4 NNW 7 11 4 6 - - 0.0
18/06:00pm 12.8 11.9 11.5 92 0.7 NNW 7 11 4 6 - - 0.0
18/05:30pm 13.3 12.6 11.5 89 1.0 N 6 11 3 6 - - 0.0
18/05:00pm 13.5 13.1 11.0 85 1.4 SW 4 6 2 3 - - 0.0
18/04:30pm 15.7 14.8 11.3 75 2.5 WSW 7 13 4 7 - - 0.0
18/04:00pm 15.6 13.2 9.9 69 3.2 WSW 13 17 7 9 - - 0.0
18/03:30pm 14.9 14.1 11.7 81 1.8 NW 7 13 4 7 - - 0.0
18/03:00pm 16.3 15.7 12.3 77 2.3 NNE 7 15 4 8 - - 0.0
18/02:30pm 18.1 16.0 12.3 69 3.4 NW 15 32 8 17 - - 0.0
18/02:00pm 16.4 15.2 11.6 73 2.8 N 9 17 5 9 - - 0.0
18/01:30pm 16.2 14.2 12.6 79 2.1 NNW 15 20 8 11 - - 0.0
18/01:00pm 17.3 14.7 12.0 71 3.1 NNW 17 35 9 19 - - 0.0
18/12:30pm 16.2 12.3 12.2 77 2.3 NNW 24 39 13 21 - - 0.0
18/12:00pm 14.7 11.5 11.3 80 1.9 NNW 19 30 10 16 - - 0.0
18/11:30am 14.2 10.6 10.4 78 2.1 NW 20 30 11 16 - - 0.0
18/11:00am 15.2 10.3 9.8 70 3.0 WNW 26 39 14 21 - - 0.0
18/10:30am 14.3 8.7 8.9 70 2.9 WNW 28 37 15 20 - - 0.0
18/10:00am 13.6 7.3 7.4 66 3.3 WNW 30 41 16 22 - - 0.0
18/09:30am 12.4 7.1 9.8 84 1.4 WNW 28 35 15 19 - - 0.0
18/09:00am 12.9 7.5 9.4 79 1.9 WNW 28 35 15 19 - - 0.2
18/08:30am 12.4 8.0 10.3 87 1.2 WNW 24 32 13 17 - - 0.2
18/08:00am 12.1 8.1 10.3 89 1.0 W 22 30 12 16 - - 0.2
18/07:30am 11.5 8.4 10.4 93 0.6 W 17 22 9 12 - - 0.2
18/07:00am 11.4 7.8 10.5 94 0.5 W 20 26 11 14 - - 0.2
18/06:30am 11.0 7.6 10.5 97 0.3 W 19 24 10 13 - - 0.2
18/06:00am 11.2 7.3 10.9 98 0.2 W 22 30 12 16 - - 0.2
18/05:30am 11.6 8.7 11.0 96 0.3 WSW 17 20 9 11 - - 0.2
18/05:00am 12.5 9.1 11.1 91 0.8 WNW 20 26 11 14 - - 0.2
18/04:30am 12.8 8.5 10.9 88 1.1 W 24 30 13 16 - - 0.2
18/04:00am 13.2 9.1 11.4 89 1.0 NW 24 32 13 17 - - 0.2
18/03:30am 13.2 8.7 11.3 88 1.1 NW 26 32 14 17 - - 0.2
18/03:00am 13.1 8.3 11.5 90 0.9 NW 28 35 15 19 - - 0.2
18/02:30am 13.3 8.1 11.7 90 0.9 NW 30 35 16 19 - - 0.2
18/02:00am 13.3 9.0 12.0 92 0.7 NW 26 33 14 18 - - 0.2
18/01:30am 13.6 8.9 12.0 90 0.9 NW 28 33 15 18 - - 0.2
18/01:00am 13.5 9.3 12.4 93 0.6 NW 26 33 14 18 - - 0.2
18/12:30am 13.5 9.4 11.6 88 1.1 NNW 24 28 13 15 - - 0.2
18/12:00am 13.8 9.3 11.5 86 1.3 NNW 26 32 14 17 - - 0.2
 
Date/Time
EDT
Temp
°C
App
Temp
°C
Dew
Point
°C
Rel
Hum
%
Delta-T
°C
Wind Press
QNH
hPa
Press
MSL
hPa
Rain since
9am
mm
Dir  Spd
km/h
Gust
km/h
Spd
kts
Gust
kts
17/11:30pm 13.5 9.9 11.7 89 1.0 NNW 22 26 12 14 - - 0.2
17/11:00pm 13.5 9.8 11.6 88 1.1 NNW 22 28 12 15 - - 0.2
17/10:30pm 12.8 10.7 12.3 97 0.3 NNW 15 17 8 9 - - 0.2
17/10:00pm 12.8 10.5 11.9 94 0.5 NNW 15 24 8 13 - - 0.2
17/09:30pm 14.5 9.8 10.5 77 2.2 NW 26 32 14 17 - - 0.2
17/09:00pm 15.1 9.9 10.3 73 2.7 NW 28 37 15 20 - - 0.2
17/08:30pm 15.6 8.7 10.2 70 3.0 WNW 37 48 20 26 - - 0.2
17/08:00pm 15.8 8.5 10.1 69 3.2 WNW 39 52 21 28 - - 0.2
17/07:35pm 15.9 8.2 10.2 69 3.2 WNW 41 59 22 32 - - 0.2
17/07:30pm 16.0 8.3 10.1 68 3.3 WNW 41 59 22 32 - - 0.2
17/07:00pm 16.4 9.9 10.3 67 3.4 WNW 35 52 19 28 - - 0.2
17/06:30pm 17.0 11.1 11.1 68 3.4 W 33 52 18 28 - - 0.2
17/06:00pm 18.4 11.8 11.5 64 4.0 W 37 50 20 27 - - 0.2
17/05:49pm 17.1 10.4 10.9 67 3.5 W 37 57 20 31 - - 0.2
17/05:30pm 17.8 11.1 11.1 65 3.9 WNW 37 50 20 27 - - 0.2
17/05:00pm 19.0 12.7 12.3 65 4.0 WNW 37 48 20 26 - - 0.2
17/04:30pm 19.9 13.2 11.1 57 5.1 WNW 37 56 20 30 - - 0.2
17/04:06pm 19.2 14.0 11.5 61 4.5 WNW 30 48 16 26 - - 0.2
17/04:00pm 18.9 14.9 11.7 63 4.2 NW 24 37 13 20 - - 0.2
17/03:30pm 20.5 15.7 13.0 62 4.5 NW 30 44 16 24 - - 0.2
17/03:00pm 18.4 12.9 11.9 66 3.8 NW 32 44 17 24 - - 0.2
17/02:45pm 17.7 12.5 11.5 67 3.6 NW 30 48 16 26 - - 0.2
17/02:30pm 17.2 14.1 12.3 73 2.9 NW 20 30 11 16 - - 0.2
17/02:00pm 18.4 14.2 12.4 68 3.5 NW 26 41 14 22 - - 0.2
17/01:30pm 17.9 14.5 12.6 71 3.1 NNW 22 37 12 20 - - 0.2
17/01:00pm 16.5 12.7 12.5 77 2.3 NNW 24 41 13 22 - - 0.0
17/12:30pm 16.3 13.3 12.5 78 2.2 NNW 20 41 11 22 - - 0.0
17/12:12pm 16.3 11.7 12.3 77 2.3 NW 28 46 15 25 - - 0.0
17/12:00pm 16.0 10.5 12.0 77 2.3 NW 32 46 17 25 - - 0.0
17/11:30am 16.1 9.6 11.7 75 2.5 NW 37 54 20 29 - - 0.0
17/11:00am 13.4 7.8 11.5 88 1.1 NW 32 43 17 23 - - 0.0
17/10:30am 13.1 5.3 11.3 89 1.0 WNW 43 56 23 30 - - 0.0
17/10:00am 12.3 5.9 10.7 90 0.9 NW 35 48 19 26 - - 0.0
17/09:30am 12.3 5.8 10.5 89 1.0 WNW 35 50 19 27 - - 0.0
17/09:29am 12.3 5.8 10.5 89 1.0 WNW 35 50 19 27 - - 0.0
17/09:00am 12.4 7.9 10.1 86 1.3 NW 24 32 13 17 - - 0.2
17/08:30am 12.6 7.3 9.8 83 1.5 NW 28 37 15 20 - - 0.2
17/08:00am 12.7 6.6 9.7 82 1.6 NW 32 39 17 21 - - 0.2
17/07:30am 12.8 6.7 9.6 81 1.7 NW 32 39 17 21 - - 0.2
17/07:00am 13.2 5.9 8.9 75 2.3 NW 37 46 20 25 - - 0.2
17/06:30am 13.4 5.4 8.9 74 2.4 NW 41 54 22 29 - - 0.2
17/06:00am 13.4 5.7 8.7 73 2.5 WNW 39 52 21 28 - - 0.2
17/05:30am 13.7 5.1 8.7 72 2.7 WNW 44 56 24 30 - - 0.2
17/05:00am 13.1 4.5 8.2 72 2.6 WNW 43 59 23 32 - - 0.2
17/04:30am 12.1 5.4 7.2 72 2.5 WNW 32 54 17 29 - - 0.2
17/04:29am 12.0 5.3 7.3 73 2.4 WNW 32 54 17 29 - - 0.2
17/04:00am 12.6 5.7 6.4 66 3.2 WNW 32 43 17 23 - - 0.2
17/03:30am 13.0 5.6 5.2 59 3.9 WNW 33 43 18 23 - - 0.2
17/03:00am 12.7 5.8 4.7 58 3.9 WNW 30 39 16 21 - - 0.2
17/02:30am 12.3 4.9 4.8 60 3.7 WNW 33 43 18 23 - - 0.2
17/02:11am 13.3 4.3 4.5 55 4.3 WNW 41 59 22 32 - - 0.2
17/02:00am 13.3 3.9 4.7 56 4.3 WNW 43 54 23 29 - - 0.2
17/01:30am 13.2 3.4 5.4 59 3.9 WNW 46 57 25 31 - - 0.2
17/01:00am 12.2 3.5 7.9 75 2.3 NW 43 54 23 29 - - 0.2
17/12:30am 11.0 4.3 11.0 100 0.0 NW 37 48 20 26 - - 0.2
17/12:00am 10.3 3.8 10.3 100 0.0 NW 35 41 19 22 - - 0.2
 
Date/Time
EDT
Temp
°C
App
Temp
°C
Dew
Point
°C
Rel
Hum
%
Delta-T
°C
Wind Press
QNH
hPa
Press
MSL
hPa
Rain since
9am
mm
Dir  Spd
km/h
Gust
km/h
Spd
kts
Gust
kts
16/11:30pm 10.1 3.5 10.1 100 0.0 NNW 35 39 19 21 - - 0.2
16/11:00pm 10.1 4.9 10.1 100 0.0 NNW 28 30 15 16 - - 0.2
16/10:30pm 9.7 5.1 9.7 100 0.0 NNW 24 28 13 15 - - 0.2
16/10:00pm 9.8 5.6 9.8 100 0.0 NNW 22 24 12 13 - - 0.2
16/09:30pm 9.2 5.4 9.2 100 0.0 N 19 22 10 12 - - 0.2
16/09:00pm 9.0 6.3 8.9 99 0.1 N 13 19 7 10 - - 0.2
16/08:30pm 9.1 6.8 9.0 99 0.1 NNE 11 17 6 9 - - 0.2
16/08:00pm 8.9 6.9 8.6 98 0.2 NE 9 13 5 7 - - 0.2
16/07:30pm 8.9 6.5 8.5 97 0.2 NNE 11 15 6 8 - - 0.2
16/07:00pm 9.4 7.0 8.6 95 0.4 N 11 13 6 7 - - 0.2
16/06:30pm 10.1 7.8 8.9 92 0.6 NNE 11 15 6 8 - - 0.2
16/06:00pm 10.5 8.6 9.1 91 0.7 NNE 9 11 5 6 - - 0.2
16/05:30pm 11.5 10.2 9.1 85 1.3 N 6 9 3 5 - - 0.2
16/05:00pm 10.9 9.3 8.8 87 1.1 N 7 11 4 6 - - 0.2
16/04:30pm 12.1 10.5 8.9 81 1.7 N 7 15 4 8 - - 0.2
16/04:00pm 11.7 9.8 8.9 83 1.5 NNE 9 15 5 8 - - 0.2
16/03:30pm 12.8 11.0 9.4 80 1.8 N 9 15 5 8 - - 0.2
16/03:00pm 11.3 8.9 8.7 84 1.4 N 11 17 6 9 - - 0.2
16/02:30pm 12.2 9.7 9.6 84 1.4 N 13 20 7 11 - - 0.2
16/02:00pm 11.2 9.0 9.5 89 0.9 N 11 19 6 10 - - 0.2
16/01:30pm 11.3 9.2 9.6 89 0.9 NNW 11 19 6 10 - - 0.2
16/01:00pm 12.2 9.5 9.0 81 1.7 NNW 13 19 7 10 - - 0.2
16/12:30pm 12.6 10.0 9.2 80 1.8 NW 13 26 7 14 - - 0.0
16/12:00pm 9.8 8.2 8.6 92 0.6 NW 7 15 4 8 - - 0.0
16/11:30am 8.7 6.9 7.9 95 0.4 SE 7 13 4 7 - - 0.0

Latest Capital City Observations: Canberra | Sydney | Melbourne | Brisbane | Adelaide | Perth | Hobart | Darwin

Other Formats:

Comma delimited format used in spreadsheet applications
http://www.bom.gov.au/fwo/IDT60901/IDT60901.95979.axf

JavaScript Object Notation format (JSON) in row-major order
http://www.bom.gov.au/fwo/IDT60901/IDT60901.95979.json